Meteo Giornale » Osservazioni meteo Stati Uniti (USA) » Ennis Big Sky
ore: 02:15 - Osservazioni Meteo Ennis Big Sky
Lat. 45° 16' N Lon. 111° 39' W Alt. 1641 metri s.l.m.
11 °C
Sereno
Temp. 24 Ore
3 °C
26 °C
Sud/Sud-Est
11.1 Km/h
Dew point 2 °C
Umidità 53 %
Visibilità 10 Km
Il sole sorge alle ore 06:48
Il sole tramonta alle ore 20:04
| Data e Ora | Cielo e Fenomeni | T °C | DP °C | Um. % | Pres. hPa | Vis. km | Vento km/h | |
|---|---|---|---|---|---|---|---|---|
| Oggi h: 02:15 | Sereno | 11 | 2 | 53 | 1019 | 10 | S/SE 11.1 | |
| Oggi h: 01:50 | Sereno | 12 | 1 | 46 | 1019 | 10 | N 0 | |
| Oggi h: 01:30 | Sereno | 12 | 1 | 46 | 1019 | 10 | N 0 | |
| Oggi h: 01:10 | Sereno | 13 | 0 | 40 | 1019 | 10 | N 5.5 | |
| Oggi h: 00:50 | Sereno | 13 | 0 | 40 | 1019 | 10 | N 9.3 | |
| Oggi h: 00:30 | Sereno | 13 | 1 | 43 | 1019 | 10 | E/SE 7.4 | |
| Oggi h: 00:10 | Sereno | 13 | 0 | 40 | 1019 | 10 | N 0 | |
| Ieri h: 23:50 | Sereno | 14 | 0 | 38 | 1019 | 10 | E/NE 7.4 | |
| Ieri h: 23:30 | Sereno | 14 | 0 | 38 | 1019 | 10 | N 0 | |
| Ieri h: 23:10 | Sereno | 14 | 1 | 41 | 1019 | 10 | O/NO 7.4 | |
| Ieri h: 22:55 | Sereno | 14 | 0 | 38 | 1019 | 10 | E 7.4 | |
| Ieri h: 22:35 | Sereno | 11 | 2 | 53 | 1019 | 10 | N 5.5 | |
| Ieri h: 22:15 | Sereno | 12 | 2 | 50 | 1019 | 10 | S/SO 7.4 | |
| Ieri h: 21:50 | Sereno | 16 | -1 | 31 | 1019 | 10 | S/SO 9.3 | |
| Ieri h: 21:30 | Sereno | 15 | 0 | 35 | 1019 | 10 | S 7.4 | |
| Ieri h: 21:10 | Sereno | 14 | 3 | 47 | 1019 | 10 | S 7.4 | |
| Ieri h: 20:50 | Sereno | 16 | 2 | 38 | 1019 | 10 | N 0 | |
| Ieri h: 20:35 | Sereno | 17 | 2 | 36 | 1018 | 10 | E/NE 13 | |
| Ieri h: 20:10 | Sereno | 18 | 3 | 36 | 1018 | 10 | N/NE 11.1 | |
| Ieri h: 19:50 | Sereno | 20 | 3 | 32 | 1018 | 10 | N/NE 13 | |
| Ieri h: 19:35 | Sereno | 21 | 2 | 28 | 1018 | 10 | N 11.1 | |
| Ieri h: 19:10 | Sereno | 23 | 1 | 23 | 1018 | 10 | N 22.2 | |
| Ieri h: 18:50 | Sereno | 25 | -7 | 11 | 1018 | 10 | N 11.1 | |
| Ieri h: 18:30 | Sereno | 25 | -8 | 10 | 1018 | 10 | S/SE 14.8 | |
| Ieri h: 18:15 | Sereno | 26 | -8 | 9 | 1018 | 10 | E/SE 9.3 | |
| Ieri h: 17:50 | Sereno | 26 | -7 | 10 | 1018 | 10 | S 16.7 | |
| Ieri h: 17:30 | Sereno | 26 | -7 | 10 | 1018 | 10 | S/SE 16.7 | |
| Ieri h: 17:10 | Sereno | 26 | -6 | 11 | 1018 | 10 | SE 14.8 | |
| Ieri h: 16:50 | Sereno | 26 | -6 | 11 | 1018 | 10 | S/SE 20.3 | |
| Ieri h: 16:30 | Sereno | 26 | -6 | 11 | 1018 | 10 | S 22.2 | |
| Ieri h: 16:10 | Sereno | 26 | -6 | 11 | 1019 | 10 | S 25.9 | |
| Ieri h: 15:55 | Sereno | 26 | -6 | 11 | 1019 | 10 | S/SE 24 | |
| Ieri h: 15:30 | Sereno | 26 | -6 | 11 | 1019 | 10 | S 25.9 | |
| Ieri h: 15:10 | Sereno | 25 | -6 | 12 | 1019 | 10 | S/SE 20.3 | |
| Ieri h: 14:55 | Sereno | 25 | -6 | 12 | 1020 | 10 | S 18.5 | |
| Ieri h: 14:30 | Sereno | 24 | -6 | 13 | 1020 | 10 | S 20.3 | |
| Ieri h: 14:10 | Sereno | 24 | -6 | 13 | 1020 | 10 | N 9.3 | |
| Ieri h: 13:50 | Sereno | 23 | -6 | 13 | 1020 | 10 | N 11.1 | |
| Ieri h: 13:35 | Sereno | 23 | -6 | 13 | 1020 | 10 | S/SO 14.8 | |
| Ieri h: 13:15 | Sereno | 23 | -6 | 13 | 1021 | 10 | S/SO 14.8 | |
| Ieri h: 12:50 | Sereno | 22 | -6 | 14 | 1021 | 10 | S/SE 13 | |
| Ieri h: 12:35 | Sereno | 22 | -6 | 14 | 1021 | 10 | S/SE 13 | |
| Ieri h: 12:10 | Sereno | 21 | -6 | 15 | 1021 | 10 | S 13 | |
| Ieri h: 11:50 | Sereno | 20 | -6 | 16 | 1021 | 10 | SE 9.3 | |
| Ieri h: 11:30 | Sereno | 20 | -5 | 18 | 1022 | 10 | S/SO 11.1 | |
| Ieri h: 11:15 | Sereno | 19 | -5 | 19 | 1022 | 10 | SE 11.1 | |
| Ieri h: 10:50 | Sereno | 18 | -4 | 22 | 1022 | 10 | S/SE 13 | |
| Ieri h: 10:30 | Sereno | 17 | -3 | 25 | 1022 | 10 | S 9.3 | |
| Ieri h: 10:10 | Sereno | 15 | -3 | 28 | 1022 | 10 | S 14.8 | |
| Ieri h: 09:55 | Sereno | 14 | -1 | 35 | 1022 | 10 | S 14.8 | |
| Ieri h: 09:35 | Sereno | 13 | -1 | 37 | 1022 | 10 | S 13 | |
| Ieri h: 09:15 | Sereno | 12 | -1 | 40 | 1022 | 10 | S 11.1 | |
| Ieri h: 08:55 | Sereno | 10 | -2 | 42 | 1023 | 10 | N 0 | |
| Ieri h: 08:35 | Sereno | 9 | -1 | 49 | 1022 | 10 | N 0 | |
| Ieri h: 08:15 | Sereno | 7 | 0 | 60 | 1022 | 10 | N 0 | |
| Ieri h: 07:55 | Sereno | 4 | -1 | 69 | 1022 | 10 | N/NE 7.4 | |
| Ieri h: 07:30 | Sereno | 3 | -1 | 74 | 1022 | 10 | N/NO 7.4 | |
| Ieri h: 07:10 | Sereno | 4 | -2 | 64 | 1022 | 10 | N 5.5 | |
| Ieri h: 06:55 | Sereno | 4 | -2 | 64 | 1022 | 10 | N 0 | |
| Ieri h: 06:35 | Sereno | 4 | -2 | 64 | 1021 | 10 | N 0 | |
| Ieri h: 06:10 | Sereno | 5 | -2 | 60 | 1021 | 10 | N 0 | |
| Ieri h: 05:55 | Sereno | 5 | -1 | 65 | 1021 | 10 | N 5.5 | |
| Ieri h: 05:30 | Sereno | 5 | -2 | 60 | 1021 | 10 | SO 9.3 | |
| Ieri h: 05:15 | Sereno | 4 | -1 | 69 | 1021 | 10 | E/NE 7.4 | |
| Ieri h: 04:50 | Sereno | 4 | -1 | 69 | 1021 | 10 | S/SE 9.3 | |
| Ieri h: 04:30 | Sereno | 5 | -1 | 65 | 1021 | 10 | E/NE 13 | |
| Ieri h: 04:10 | Sereno | 4 | -1 | 69 | 1021 | 10 | N 0 | |
| Ieri h: 03:55 | Sereno | 4 | -1 | 69 | 1021 | 10 | N 5.5 | |
| Ieri h: 03:30 | Sereno | 5 | -1 | 65 | 1021 | 10 | N 5.5 | |
| Ieri h: 03:10 | Sereno | 6 | -1 | 60 | 1021 | 10 | N/NO 9.3 | |
| Ieri h: 02:50 | Sereno | 8 | -2 | 49 | 1021 | 10 | NO 11.1 | |



